Clarkston, MI

8:14 PM EDT on July 07, 2015 (GMT -0400)
Rural St | | Change Station
CLOSE
Current Station
Personal Weather Station
Location: Waterford, MI
Elevation: 1038 ft
Nearby Weather Stations

Elev 1038 ft 42.70 °N, 83.40 °W | Updated 4 seconds ago

Rain
Rain
61.4 °F
Feels Like 61.4 °F
N
1.0
Wind Variable Wind from NNE
Gusts 2.0 mph

Today
High -- | Low -- °F
--% Chance of Precip.
Yesterday
High -- | Low -- °F
Precip. -- in
6:02 AM 9:14 PM
Waning Gibbous, 60% visible
Pressure 29.96 in
Visibility 8.0 miles
Clouds Few 1300 ft
Overcast 2100 ft
Dew Point 59 °F
Humidity 92%
Rainfall 0.48 in
Snow Depth Not available.
UV 0 out of 12
Pollen .50 out of 12
Air Quality Not available.
Flu Activity Not available.
METAR KPTK 072353Z 35008KT 8SM FEW013 OVC021 17/14 A2998 RMK AO2 DZE52 SLP146 P0000 60000 T01720144 10189 20167 53013

More Conditions Fewer Conditions

Pressure 29.96 in
Visibility 8.0 miles
Clouds Few 1300 ft
Overcast 2100 ft
Dew Point 59 °F
Humidity 92%
Rainfall 0.48 in
Snow Depth Not available.
UV 0 out of 12
Pollen .50 out of 12
Air Quality Not available.
Flu Activity Not available.
METAR KPTK 072353Z 35008KT 8SM FEW013 OVC021 17/14 A2998 RMK AO2 DZE52 SLP146 P0000 60000 T01720144 10189 20167 53013

More Conditions Fewer Conditions

10-Day Weather Forecast

×

Almanac

Astronomy

Jul. 07, 2015 Rise Set
Actual Time
Civil Twilight
Nautical Twilight
Astronomical Twilight
Moon
Length of Visible Light
Length of Day
Tomorrow will be .
, % of the Moon is Illuminated

Today's Extremes

State Highs State Lows

Community

WunderPhotos

Upload Photos

1,835,970 photos uploaded!

WunderBlogs® & News

Nearby

Air Quality

  Air Quality AQ Index Pollutant
Not available.

Snow Depth

Station Depth Elevation

Earthquake Activity

City Distance Mag. Time & Date
Minimum magnitude displayed is 2.5.

Coastal Water Temperatures

Place Temperature

Stations

Nearby Weather Stations

Station Location Temp. Windchill Dew Point Humidity Wind Precip. Elev Updated Type